NWS059 UUEE-UWKD
Flight info
| Callsign | NWS059 |
|---|---|
| Flight time | N/A |
| Altitude | 37000 |
| Route | KOGOM3J KOGOM L94 EKPIR M864 INKEB L94 UNORO T788 KOROM KOROM1T |
| Aircraft | B738/M-SJ4GIRWYBL/B1L |
Departure
| Time | N/A |
|---|---|
| Airport | Sheremetyevo International Airport (UUEE) |
Arrival
| Time | 2026-05-05 16:15 |
|---|---|
| Airport | Kazan International Airport (UWKD) |
| Time | Latitude | Longitude | Altitude | Speed | Heading |
|---|---|---|---|---|---|
| 2026-05-05 15:30 | 56.04120 | 40.93501 | 36817 ft | 484 kts | 90° |
| 2026-05-05 15:30 | 56.04180 | 41.05530 | 36818 ft | 484 kts | 90° |
| 2026-05-05 15:31 | 56.04231 | 41.17566 | 36812 ft | 484 kts | 90° |
| 2026-05-05 15:31 | 56.04271 | 41.29591 | 36815 ft | 483 kts | 90° |
| 2026-05-05 15:32 | 56.04299 | 41.41607 | 36816 ft | 483 kts | 90° |
| 2026-05-05 15:32 | 56.04315 | 41.53619 | 36816 ft | 482 kts | 90° |
| 2026-05-05 15:33 | 56.04319 | 41.65607 | 36811 ft | 482 kts | 91° |
| 2026-05-05 15:33 | 56.04312 | 41.77573 | 36817 ft | 481 kts | 91° |
| 2026-05-05 15:34 | 56.04294 | 41.89527 | 36813 ft | 481 kts | 91° |
| 2026-05-05 15:34 | 56.04263 | 42.01485 | 36813 ft | 480 kts | 91° |
| 2026-05-05 15:35 | 56.04222 | 42.13419 | 36811 ft | 480 kts | 91° |
| 2026-05-05 15:35 | 56.04169 | 42.25362 | 36807 ft | 480 kts | 91° |
| 2026-05-05 15:36 | 56.04104 | 42.37289 | 36814 ft | 479 kts | 91° |
| 2026-05-05 15:36 | 56.04030 | 42.49209 | 36810 ft | 479 kts | 91° |
| 2026-05-05 15:37 | 56.03929 | 42.61053 | 36808 ft | 480 kts | 92° |
| 2026-05-05 15:37 | 56.03784 | 42.73062 | 36810 ft | 480 kts | 92° |
| 2026-05-05 15:38 | 56.03629 | 42.84923 | 36818 ft | 482 kts | 92° |
| 2026-05-05 15:38 | 56.03465 | 42.97001 | 36821 ft | 490 kts | 92° |
| 2026-05-05 15:39 | 56.03289 | 43.09243 | 36820 ft | 495 kts | 92° |
| 2026-05-05 15:39 | 56.03101 | 43.21577 | 36809 ft | 497 kts | 92° |
| 2026-05-05 15:40 | 56.02927 | 43.33926 | 36808 ft | 498 kts | 90° |
| 2026-05-05 15:40 | 56.03584 | 43.46221 | 36808 ft | 498 kts | 83° |
| 2026-05-05 15:41 | 56.04519 | 43.58496 | 36806 ft | 497 kts | 83° |
| 2026-05-05 15:41 | 56.05400 | 43.70773 | 36803 ft | 497 kts | 83° |
| 2026-05-05 15:42 | 56.06214 | 43.83031 | 36799 ft | 496 kts | 84° |
| 2026-05-05 15:42 | 56.07000 | 43.95289 | 36802 ft | 495 kts | 84° |
| 2026-05-05 15:43 | 56.07775 | 44.07531 | 36805 ft | 494 kts | 84° |
| 2026-05-05 15:43 | 56.08539 | 44.19751 | 36800 ft | 494 kts | 84° |
| 2026-05-05 15:44 | 56.09292 | 44.31968 | 36806 ft | 493 kts | 84° |
| 2026-05-05 15:44 | 56.10032 | 44.44186 | 36802 ft | 493 kts | 84° |
| 2026-05-05 15:45 | 56.10761 | 44.56396 | 36804 ft | 493 kts | 84° |
| 2026-05-05 15:45 | 56.11359 | 44.68629 | 36793 ft | 492 kts | 90° |
| 2026-05-05 15:46 | 56.11101 | 44.80868 | 36799 ft | 492 kts | 94° |
| 2026-05-05 15:46 | 56.10758 | 44.93107 | 36800 ft | 492 kts | 93° |
| 2026-05-05 15:47 | 56.10505 | 45.05355 | 36804 ft | 492 kts | 93° |
| 2026-05-05 15:47 | 56.10221 | 45.17584 | 36800 ft | 492 kts | 93° |
| 2026-05-05 15:48 | 56.09919 | 45.29817 | 36800 ft | 491 kts | 93° |
| 2026-05-05 15:48 | 56.09609 | 45.42045 | 36802 ft | 491 kts | 93° |
| 2026-05-05 15:49 | 56.09289 | 45.54267 | 36805 ft | 491 kts | 94° |
| 2026-05-05 15:49 | 56.08957 | 45.66491 | 36804 ft | 491 kts | 94° |
| 2026-05-05 15:50 | 56.08613 | 45.78706 | 36803 ft | 491 kts | 94° |
| 2026-05-05 15:50 | 56.08256 | 45.90920 | 36802 ft | 491 kts | 94° |
| 2026-05-05 15:51 | 56.07890 | 46.03048 | 36806 ft | 491 kts | 94° |
| 2026-05-05 15:51 | 56.07510 | 46.15245 | 36811 ft | 491 kts | 94° |
| 2026-05-05 15:52 | 56.07118 | 46.27431 | 36814 ft | 490 kts | 94° |
| 2026-05-05 15:52 | 56.06717 | 46.39610 | 36807 ft | 490 kts | 94° |
| 2026-05-05 15:53 | 56.06116 | 46.51735 | 36783 ft | 484 kts | 102° |
| 2026-05-05 15:53 | 56.05267 | 46.57438 | 36386 ft | 468 kts | 112° |
| 2026-05-05 15:53 | 56.04106 | 46.62838 | 35603 ft | 464 kts | 113° |
| 2026-05-05 15:53 | 56.02904 | 46.68201 | 34593 ft | 467 kts | 114° |
| 2026-05-05 15:54 | 56.01693 | 46.73611 | 33501 ft | 471 kts | 113° |
| 2026-05-05 15:54 | 56.00483 | 46.79091 | 32277 ft | 475 kts | 113° |
| 2026-05-05 15:54 | 55.99286 | 46.84591 | 31290 ft | 475 kts | 112° |
| 2026-05-05 15:54 | 55.98107 | 46.90058 | 30560 ft | 468 kts | 112° |
| 2026-05-05 15:55 | 55.96951 | 46.95431 | 30032 ft | 463 kts | 112° |
| 2026-05-05 15:55 | 55.95802 | 47.00758 | 29478 ft | 460 kts | 112° |
| 2026-05-05 15:55 | 55.94634 | 47.06149 | 28927 ft | 455 kts | 112° |
| 2026-05-05 15:55 | 55.93498 | 47.11378 | 28453 ft | 450 kts | 112° |
| 2026-05-05 15:56 | 55.92367 | 47.16567 | 27983 ft | 446 kts | 112° |
| 2026-05-05 15:56 | 55.91231 | 47.21759 | 27473 ft | 442 kts | 112° |
| 2026-05-05 15:56 | 55.90118 | 47.26835 | 26985 ft | 438 kts | 112° |
| 2026-05-05 15:56 | 55.89014 | 47.31865 | 26517 ft | 434 kts | 112° |
| 2026-05-05 15:57 | 55.87916 | 47.36856 | 26050 ft | 431 kts | 112° |
| 2026-05-05 15:57 | 55.86827 | 47.41801 | 25591 ft | 427 kts | 112° |
| 2026-05-05 15:57 | 55.85743 | 47.46708 | 25138 ft | 424 kts | 112° |
| 2026-05-05 15:57 | 55.84667 | 47.51569 | 24679 ft | 421 kts | 112° |
| 2026-05-05 15:58 | 55.83591 | 47.56415 | 24224 ft | 419 kts | 112° |
| 2026-05-05 15:58 | 55.82521 | 47.61226 | 23784 ft | 417 kts | 112° |
| 2026-05-05 15:58 | 55.81457 | 47.65999 | 23287 ft | 415 kts | 112° |
| 2026-05-05 15:58 | 55.80395 | 47.70758 | 22764 ft | 413 kts | 112° |
| 2026-05-05 15:59 | 55.79340 | 47.75478 | 22285 ft | 409 kts | 112° |
| 2026-05-05 15:59 | 55.78292 | 47.80145 | 21817 ft | 406 kts | 112° |
| 2026-05-05 15:59 | 55.77244 | 47.84789 | 21367 ft | 403 kts | 113° |
| 2026-05-05 15:59 | 55.76200 | 47.89379 | 20925 ft | 399 kts | 113° |
| 2026-05-05 16:00 | 55.75162 | 47.93933 | 20487 ft | 397 kts | 113° |
| 2026-05-05 16:00 | 55.74127 | 47.98462 | 20038 ft | 394 kts | 113° |
| 2026-05-05 16:00 | 55.73102 | 48.02943 | 19611 ft | 391 kts | 113° |
| 2026-05-05 16:00 | 55.72080 | 48.07403 | 19182 ft | 389 kts | 113° |
| 2026-05-05 16:01 | 55.71063 | 48.11831 | 18750 ft | 387 kts | 113° |
| 2026-05-05 16:01 | 55.70051 | 48.16233 | 18316 ft | 385 kts | 113° |
| 2026-05-05 16:01 | 55.69044 | 48.20604 | 17854 ft | 383 kts | 113° |
| 2026-05-05 16:01 | 55.68033 | 48.24967 | 17521 ft | 381 kts | 110° |
| 2026-05-05 16:02 | 55.67024 | 48.29324 | 16960 ft | 382 kts | 110° |
| 2026-05-05 16:02 | 55.66020 | 48.33665 | 16501 ft | 379 kts | 110° |
| 2026-05-05 16:02 | 55.65023 | 48.37968 | 16061 ft | 376 kts | 110° |
| 2026-05-05 16:02 | 55.64031 | 48.42236 | 15626 ft | 373 kts | 110° |
| 2026-05-05 16:03 | 55.63046 | 48.46455 | 15199 ft | 371 kts | 110° |
| 2026-05-05 16:03 | 55.62026 | 48.50575 | 14789 ft | 369 kts | 115° |
| 2026-05-05 16:03 | 55.60776 | 48.54579 | 14375 ft | 367 kts | 119° |
| 2026-05-05 16:03 | 55.59472 | 48.58381 | 13971 ft | 364 kts | 120° |
| 2026-05-05 16:04 | 55.58147 | 48.62178 | 13549 ft | 362 kts | 120° |
| 2026-05-05 16:04 | 55.56837 | 48.65961 | 13088 ft | 360 kts | 120° |
| 2026-05-05 16:04 | 55.55968 | 48.68500 | 12793 ft | 358 kts | 120° |
| 2026-05-05 16:04 | 55.54282 | 48.73472 | 12236 ft | 354 kts | 119° |
| 2026-05-05 16:05 | 55.53030 | 48.77188 | 11815 ft | 351 kts | 119° |
| 2026-05-05 16:05 | 55.51789 | 48.80881 | 11400 ft | 349 kts | 119° |
| 2026-05-05 16:05 | 55.50555 | 48.84550 | 10994 ft | 346 kts | 119° |
| 2026-05-05 16:05 | 55.49331 | 48.88187 | 10583 ft | 344 kts | 119° |
| 2026-05-05 16:06 | 55.48509 | 48.90628 | 10318 ft | 343 kts | 120° |
| 2026-05-05 16:06 | 55.47294 | 48.94235 | 9919 ft | 341 kts | 120° |
| 2026-05-05 16:06 | 55.46085 | 48.97814 | 9501 ft | 339 kts | 120° |
| 2026-05-05 16:06 | 55.44884 | 49.01363 | 9084 ft | 337 kts | 120° |
| 2026-05-05 16:07 | 55.43689 | 49.04885 | 8667 ft | 334 kts | 120° |
| 2026-05-05 16:07 | 55.42500 | 49.08382 | 8256 ft | 332 kts | 120° |
| 2026-05-05 16:07 | 55.41316 | 49.11862 | 7848 ft | 330 kts | 120° |
| 2026-05-05 16:07 | 55.40141 | 49.15311 | 7444 ft | 328 kts | 120° |
| 2026-05-05 16:08 | 55.38973 | 49.18736 | 7059 ft | 326 kts | 120° |
| 2026-05-05 16:08 | 55.37805 | 49.22153 | 6667 ft | 324 kts | 121° |
| 2026-05-05 16:08 | 55.36646 | 49.25541 | 6276 ft | 323 kts | 120° |
| 2026-05-05 16:08 | 55.35795 | 49.29148 | 5835 ft | 321 kts | 99° |
| 2026-05-05 16:09 | 55.35865 | 49.33000 | 5458 ft | 315 kts | 74° |
| 2026-05-05 16:09 | 55.36769 | 49.36445 | 5084 ft | 309 kts | 53° |
| 2026-05-05 16:09 | 55.38258 | 49.39093 | 4761 ft | 302 kts | 34° |
| 2026-05-05 16:09 | 55.39945 | 49.41245 | 4443 ft | 298 kts | 33° |
| 2026-05-05 16:10 | 55.41619 | 49.43372 | 4086 ft | 297 kts | 34° |
| 2026-05-05 16:10 | 55.43306 | 49.45469 | 3783 ft | 293 kts | 32° |
| 2026-05-05 16:10 | 55.44962 | 49.47444 | 3495 ft | 282 kts | 32° |
| 2026-05-05 16:10 | 55.46555 | 49.49342 | 3234 ft | 272 kts | 32° |
| 2026-05-05 16:11 | 55.48087 | 49.51177 | 2998 ft | 261 kts | 31° |
| 2026-05-05 16:11 | 55.52032 | 49.50000 | 2803 ft | 180 kts | 304° |
| 2026-05-05 16:12 | 55.52740 | 49.48304 | 2791 ft | 170 kts | 303° |
| 2026-05-05 16:12 | 55.54093 | 49.44836 | 2411 ft | 169 kts | 302° |
| 2026-05-05 16:13 | 55.55884 | 49.40174 | 1800 ft | 147 kts | 302° |
| 2026-05-05 16:13 | 55.56462 | 49.38671 | 1609 ft | 148 kts | 301° |
| 2026-05-05 16:13 | 55.57040 | 49.37166 | 1414 ft | 148 kts | 301° |
| 2026-05-05 16:14 | 55.58226 | 49.34081 | 997 ft | 157 kts | 302° |
| 2026-05-05 16:14 | 55.59447 | 49.30919 | 565 ft | 154 kts | 302° |
| 2026-05-05 16:15 | 55.60513 | 49.28165 | 415 ft | 88 kts | 304° |
| 2026-05-05 16:15 | 55.60961 | 49.27008 | 414 ft | 21 kts | 304° |
| 2026-05-05 16:16 | 55.61116 | 49.26802 | 417 ft | 16 kts | 32° |
| 2026-05-05 16:16 | 55.61221 | 49.26991 | 415 ft | 10 kts | 120° |
| 2026-05-05 16:17 | 55.61146 | 49.27186 | 411 ft | 10 kts | 124° |
| 2026-05-05 16:17 | 55.61104 | 49.27295 | 410 ft | 12 kts | 124° |
| 2026-05-05 16:18 | 55.60990 | 49.27587 | 408 ft | 16 kts | 124° |
| 2026-05-05 16:18 | 55.60928 | 49.27749 | 412 ft | 16 kts | 124° |
| 2026-05-05 16:18 | 55.60808 | 49.28058 | 411 ft | 15 kts | 124° |
| 2026-05-05 16:19 | 55.60752 | 49.28202 | 412 ft | 14 kts | 124° |
| 2026-05-05 16:19 | 55.60697 | 49.28341 | 408 ft | 14 kts | 124° |
| 2026-05-05 16:19 | 55.60596 | 49.28631 | 412 ft | 13 kts | 105° |
| 2026-05-05 16:20 | 55.60580 | 49.28948 | 415 ft | 13 kts | 94° |
| 2026-05-05 16:20 | 55.60635 | 49.29211 | 415 ft | 12 kts | 34° |
| 2026-05-05 16:21 | 55.60769 | 49.29373 | 415 ft | 11 kts | 34° |
| 2026-05-05 16:22 | 55.60769 | 49.29625 | 415 ft | 9 kts | 77° |
| 2026-05-05 16:22 | 55.60809 | 49.29692 | 413 ft | 0 kts | 33° |